Time;durP1;ratioP1;P1;durP2;ratioP2;P2;SDS_P1;SDS_P2;PMS_P1;PMS_P2;Temp;Humidity;BMP_temperature;BMP_pressure;BME280_temperature;BME280_humidity;BME280_pressure;Samples;Min_cycle;Max_cycle;Signal;HPM_P1;HPM_P2
2022/05/05 00:00:46;;;;;;;10.03;7.33;;;;;;;;;;4983037;28;20254;-79
2022/05/05 00:03:12;;;;;;;10.05;8.65;;;;;;;;;;4999165;28;20938;-79
2022/05/05 00:05:38;;;;;;;7.63;6.33;;;;;;;;;;4998928;28;20190;-80
2022/05/05 00:08:04;;;;;;;6.93;6.23;;;;;;;;;;4985177;28;20533;-79
2022/05/05 00:16:00;;;;;;;7.78;6.10;;;;;;;;;;4990407;28;20217;-79
2022/05/05 00:18:26;;;;;;;6.78;4.95;;;;;;;;;;5005107;28;20242;-79
2022/05/05 00:20:52;;;;;;;6.43;5.00;;;;;;;;;;4989428;28;20207;-79
2022/05/05 00:23:18;;;;;;;5.63;5.00;;;;;;;;;;5005091;28;20219;-79
2022/05/05 00:25:45;;;;;;;11.40;6.03;;;;;;;;;;5002993;28;20509;-79
2022/05/05 00:28:11;;;;;;;7.17;5.77;;;;;;;;;;5003777;28;20207;-79
2022/05/05 00:30:37;;;;;;;6.10;4.80;;;;;;;;;;5004569;28;20437;-79
2022/05/05 00:33:03;;;;;;;6.40;5.70;;;;;;;;;;4988785;28;20701;-80
2022/05/05 00:35:29;;;;;;;7.30;6.18;;;;;;;;;;5002893;28;20183;-80
2022/05/05 00:37:55;;;;;;;6.77;5.10;;;;;;;;;;5003270;28;20210;-80
2022/05/05 00:40:21;;;;;;;9.48;7.00;;;;;;;;;;4987822;28;20453;-80
2022/05/05 00:42:47;;;;;;;7.00;5.83;;;;;;;;;;5002640;28;20195;-80
2022/05/05 00:45:13;;;;;;;6.35;5.60;;;;;;;;;;4984804;28;20441;-80
2022/05/05 00:47:39;;;;;;;7.03;6.33;;;;;;;;;;5003028;28;20215;-80
2022/05/05 00:50:06;;;;;;;9.18;6.15;;;;;;;;;;5003079;28;20506;-80
2022/05/05 00:52:32;;;;;;;6.43;5.78;;;;;;;;;;4987871;28;20652;-79
2022/05/05 00:54:59;;;;;;;6.65;5.43;;;;;;;;;;4986667;28;20191;-80
2022/05/05 00:57:26;;;;;;;6.25;5.25;;;;;;;;;;5005425;28;20175;-80
2022/05/05 00:59:52;;;;;;;7.90;5.00;;;;;;;;;;4987824;28;20209;-79
2022/05/05 01:02:19;;;;;;;5.70;5.20;;;;;;;;;;5002615;28;20371;-79
2022/05/05 01:04:46;;;;;;;7.78;6.15;;;;;;;;;;5002271;28;20195;-79
2022/05/05 01:07:13;;;;;;;6.03;5.07;;;;;;;;;;5002848;28;20285;-79
2022/05/05 01:09:39;;;;;;;8.45;5.53;;;;;;;;;;5003925;28;20210;-79
2022/05/05 01:12:06;;;;;;;6.43;5.63;;;;;;;;;;5004582;28;20205;-79
2022/05/05 01:14:32;;;;;;;6.63;5.25;;;;;;;;;;5000340;28;20213;-79
2022/05/05 01:16:59;;;;;;;6.57;5.18;;;;;;;;;;4985516;28;20254;-79
2022/05/05 01:19:25;;;;;;;6.07;5.40;;;;;;;;;;4987465;28;20183;-79
2022/05/05 01:21:52;;;;;;;6.25;4.70;;;;;;;;;;5002542;28;20225;-79
2022/05/05 01:28:10;;;;;;;6.75;5.30;;;;;;;;;;4988132;28;20214;-79
2022/05/05 01:29:50;;;;;;;4.80;3.80;;;;;;;;;;5004644;28;20194;-79
2022/05/05 01:32:16;;;;;;;8.30;4.63;;;;;;;;;;5001138;28;20419;-79
2022/05/05 01:34:42;;;;;;;4.63;4.13;;;;;;;;;;4984259;28;20362;-79
2022/05/05 01:37:08;;;;;;;4.40;3.50;;;;;;;;;;4987201;28;20549;-80
2022/05/05 01:39:34;;;;;;;6.53;4.07;;;;;;;;;;4986766;28;20246;-80
2022/05/05 01:42:00;;;;;;;6.03;4.27;;;;;;;;;;4987509;28;20438;-80
2022/05/05 01:44:26;;;;;;;4.72;4.10;;;;;;;;;;5001385;28;20509;-80
2022/05/05 01:46:55;;;;;;;4.93;4.43;;;;;;;;;;5001778;28;20686;-80
2022/05/05 01:49:21;;;;;;;5.10;4.60;;;;;;;;;;5002058;28;20445;-79
2022/05/05 01:51:48;;;;;;;5.93;4.10;;;;;;;;;;5002423;28;20187;-79
2022/05/05 01:54:14;;;;;;;5.93;4.63;;;;;;;;;;5005615;28;20679;-79
2022/05/05 01:56:39;;;;;;;6.53;4.73;;;;;;;;;;5002373;28;20188;-80
2022/05/05 01:59:06;;;;;;;4.33;3.77;;;;;;;;;;4983683;28;20485;-80
2022/05/05 02:01:33;;;;;;;7.30;3.85;;;;;;;;;;5000193;28;20446;-80
2022/05/05 02:04:00;;;;;;;7.60;4.78;;;;;;;;;;4983937;28;20211;-80
2022/05/05 02:06:26;;;;;;;8.88;4.85;;;;;;;;;;5004478;28;20171;-79
2022/05/05 02:08:52;;;;;;;6.43;5.10;;;;;;;;;;4987061;28;20175;-79
2022/05/05 02:11:19;;;;;;;7.93;4.82;;;;;;;;;;5001235;28;20183;-80
2022/05/05 02:13:45;;;;;;;7.50;4.97;;;;;;;;;;5000831;28;20191;-79
2022/05/05 02:16:11;;;;;;;5.67;4.33;;;;;;;;;;5002482;28;20230;-79
2022/05/05 02:18:37;;;;;;;8.65;5.53;;;;;;;;;;5002141;28;20596;-79
2022/05/05 02:21:03;;;;;;;8.47;4.73;;;;;;;;;;5003855;28;20179;-79
2022/05/05 02:23:29;;;;;;;6.45;4.88;;;;;;;;;;4994456;28;20446;-80
2022/05/05 02:25:56;;;;;;;7.57;4.55;;;;;;;;;;4994247;28;20195;-79
2022/05/05 02:28:22;;;;;;;6.95;5.15;;;;;;;;;;5000562;28;20257;-79
2022/05/05 02:30:48;;;;;;;6.38;5.78;;;;;;;;;;4984488;28;20519;-80
2022/05/05 02:33:14;;;;;;;8.98;5.82;;;;;;;;;;5004041;28;20552;-80
2022/05/05 02:35:41;;;;;;;6.78;4.93;;;;;;;;;;4983263;28;20191;-80
2022/05/05 02:40:52;;;;;;;9.70;5.40;;;;;;;;;;5001417;28;20201;-79
2022/05/05 02:43:18;;;;;;;7.75;6.40;;;;;;;;;;5000905;28;20186;-79
2022/05/05 02:45:44;;;;;;;6.13;4.93;;;;;;;;;;4984134;28;20190;-79
2022/05/05 02:48:10;;;;;;;7.65;6.43;;;;;;;;;;4987019;28;20203;-80
2022/05/05 02:50:36;;;;;;;7.03;5.15;;;;;;;;;;4985964;28;20206;-80
2022/05/05 02:54:47;;;;;;;7.13;5.00;;;;;;;;;;5000484;28;20187;-80
2022/05/05 02:55:49;;;;;;;8.00;5.72;;;;;;;;;;5000449;28;20183;-79
2022/05/05 02:58:15;;;;;;;7.97;5.60;;;;;;;;;;4986013;28;20191;-79
2022/05/05 03:00:41;;;;;;;9.68;5.90;;;;;;;;;;5001078;28;20187;-79
2022/05/05 03:03:07;;;;;;;9.30;5.55;;;;;;;;;;5003783;28;20265;-80
2022/05/05 03:05:33;;;;;;;6.45;4.25;;;;;;;;;;4985100;28;20203;-80
2022/05/05 03:07:59;;;;;;;7.33;5.63;;;;;;;;;;4985144;28;20207;-80
2022/05/05 03:10:27;;;;;;;7.55;5.13;;;;;;;;;;4982859;28;20447;-80
2022/05/05 03:12:54;;;;;;;9.30;5.60;;;;;;;;;;4983347;28;20213;-80
2022/05/05 03:15:20;;;;;;;7.35;6.40;;;;;;;;;;5003277;28;20175;-80
2022/05/05 03:17:48;;;;;;;8.10;6.30;;;;;;;;;;4985192;28;20246;-80
2022/05/05 03:20:14;;;;;;;8.43;6.15;;;;;;;;;;4985649;28;20444;-80
2022/05/05 03:22:40;;;;;;;9.63;5.70;;;;;;;;;;4982781;28;20263;-80
2022/05/05 03:25:06;;;;;;;7.30;5.80;;;;;;;;;;5000332;28;20435;-79
2022/05/05 03:27:32;;;;;;;9.75;5.78;;;;;;;;;;4984973;28;20466;-79
2022/05/05 03:29:58;;;;;;;8.70;5.82;;;;;;;;;;4986491;28;20179;-80
2022/05/05 03:32:24;;;;;;;10.00;6.30;;;;;;;;;;4999630;28;20195;-80
2022/05/05 03:34:50;;;;;;;10.53;6.00;;;;;;;;;;4982723;28;20815;-80
2022/05/05 03:37:16;;;;;;;8.35;7.30;;;;;;;;;;5000347;28;20460;-80
2022/05/05 03:39:42;;;;;;;9.18;6.20;;;;;;;;;;5000925;28;20192;-80
2022/05/05 03:42:08;;;;;;;9.68;6.80;;;;;;;;;;4986084;28;20695;-80
2022/05/05 03:44:34;;;;;;;8.68;6.80;;;;;;;;;;4985360;28;20199;-80
2022/05/05 03:47:00;;;;;;;9.02;6.45;;;;;;;;;;5000001;28;20203;-80
2022/05/05 03:49:26;;;;;;;8.95;6.55;;;;;;;;;;5003544;28;20181;-80
2022/05/05 03:51:52;;;;;;;9.10;6.40;;;;;;;;;;5004350;28;20203;-80
2022/05/05 03:54:18;;;;;;;12.90;6.90;;;;;;;;;;5007126;28;20421;-79
2022/05/05 03:56:44;;;;;;;7.90;6.32;;;;;;;;;;4989909;28;20183;-80
2022/05/05 03:59:10;;;;;;;9.18;6.47;;;;;;;;;;4988458;28;20217;-80
2022/05/05 04:01:36;;;;;;;8.68;6.72;;;;;;;;;;5004410;28;20191;-79
2022/05/05 04:04:02;;;;;;;8.75;6.38;;;;;;;;;;4987015;28;20205;-79
2022/05/05 04:06:28;;;;;;;11.35;7.60;;;;;;;;;;4988737;28;20186;-79
2022/05/05 04:08:54;;;;;;;8.18;6.18;;;;;;;;;;4989549;28;20250;-80
2022/05/05 04:11:20;;;;;;;8.85;7.18;;;;;;;;;;4988933;28;20194;-80
2022/05/05 04:13:46;;;;;;;8.93;6.70;;;;;;;;;;4987975;28;20295;-80
2022/05/05 04:16:13;;;;;;;9.55;7.35;;;;;;;;;;4989281;28;20219;-78
2022/05/05 04:18:39;;;;;;;9.13;7.13;;;;;;;;;;4987456;28;20191;-82
2022/05/05 04:21:06;;;;;;;13.90;6.95;;;;;;;;;;5006491;28;20185;-80
2022/05/05 04:23:32;;;;;;;11.18;7.40;;;;;;;;;;5002896;28;20199;-80
2022/05/05 04:25:58;;;;;;;9.80;7.15;;;;;;;;;;4985753;28;20413;-80
2022/05/05 04:28:24;;;;;;;12.63;9.15;;;;;;;;;;5003748;28;20210;-80
2022/05/05 04:30:50;;;;;;;14.55;8.35;;;;;;;;;;5004111;28;20187;-80
2022/05/05 04:33:16;;;;;;;13.52;8.40;;;;;;;;;;5007098;28;20183;-79
2022/05/05 04:35:42;;;;;;;12.97;9.07;;;;;;;;;;5003568;28;20185;-79
2022/05/05 04:38:09;;;;;;;14.20;8.43;;;;;;;;;;4985957;28;20457;-80
2022/05/05 04:40:35;;;;;;;17.90;9.40;;;;;;;;;;5003404;28;20275;-80
2022/05/05 04:43:01;;;;;;;16.47;9.90;;;;;;;;;;4986571;28;20184;-80
2022/05/05 04:45:27;;;;;;;15.23;9.90;;;;;;;;;;4988477;28;20426;-80
2022/05/05 04:47:53;;;;;;;13.38;8.55;;;;;;;;;;5005688;28;20231;-80
2022/05/05 04:50:19;;;;;;;18.25;9.73;;;;;;;;;;4988131;28;20190;-80
2022/05/05 04:52:45;;;;;;;14.85;10.75;;;;;;;;;;5002476;28;20202;-80
2022/05/05 04:55:11;;;;;;;14.45;11.27;;;;;;;;;;4987723;28;20186;-80
2022/05/05 04:57:38;;;;;;;13.60;9.27;;;;;;;;;;5004732;28;20202;-80
2022/05/05 05:00:05;;;;;;;13.60;9.50;;;;;;;;;;4988513;28;20597;-80
2022/05/05 05:02:31;;;;;;;13.57;9.38;;;;;;;;;;5002746;28;20201;-80
2022/05/05 05:04:57;;;;;;;10.97;8.40;;;;;;;;;;4987510;28;20254;-80
2022/05/05 05:07:23;;;;;;;13.23;9.10;;;;;;;;;;4987834;28;20493;-80
2022/05/05 05:09:49;;;;;;;14.63;9.80;;;;;;;;;;4985345;28;20438;-80
2022/05/05 05:12:15;;;;;;;13.75;9.43;;;;;;;;;;4989009;28;20187;-81
2022/05/05 05:14:41;;;;;;;11.75;8.18;;;;;;;;;;4987745;28;20190;-80
2022/05/05 05:17:07;;;;;;;14.15;8.68;;;;;;;;;;4987693;28;20237;-80
2022/05/05 05:19:33;;;;;;;13.85;8.48;;;;;;;;;;5002772;28;20273;-80
2022/05/05 05:21:59;;;;;;;14.35;8.02;;;;;;;;;;5004392;28;20543;-81
2022/05/05 05:24:25;;;;;;;15.15;8.02;;;;;;;;;;5004970;28;20175;-80
2022/05/05 05:26:51;;;;;;;15.80;9.18;;;;;;;;;;5004087;28;20610;-80
2022/05/05 05:29:17;;;;;;;15.90;9.20;;;;;;;;;;5003342;28;20187;-80
2022/05/05 05:31:43;;;;;;;12.20;8.10;;;;;;;;;;5001997;28;20445;-80
2022/05/05 05:34:09;;;;;;;12.13;8.53;;;;;;;;;;5002263;28;20483;-80
2022/05/05 05:36:36;;;;;;;12.77;8.45;;;;;;;;;;5002838;28;20419;-80
2022/05/05 05:39:01;;;;;;;14.98;9.35;;;;;;;;;;5004442;28;20707;-80
2022/05/05 05:41:27;;;;;;;13.77;9.47;;;;;;;;;;4987705;28;20233;-80
2022/05/05 05:43:53;;;;;;;14.50;9.65;;;;;;;;;;5001860;28;20472;-80
2022/05/05 05:46:20;;;;;;;18.87;10.07;;;;;;;;;;5002458;28;20207;-81
2022/05/05 05:48:46;;;;;;;12.75;8.70;;;;;;;;;;4986802;28;20486;-81
2022/05/05 05:51:13;;;;;;;18.30;9.47;;;;;;;;;;4988121;28;20575;-81
2022/05/05 05:53:39;;;;;;;16.67;11.20;;;;;;;;;;4987275;28;20434;-80
2022/05/05 05:56:05;;;;;;;16.60;9.77;;;;;;;;;;4986635;28;20186;-80
2022/05/05 05:58:31;;;;;;;16.30;10.43;;;;;;;;;;4983783;28;20922;-80
2022/05/05 06:00:57;;;;;;;14.20;10.75;;;;;;;;;;5002242;28;20239;-80
2022/05/05 06:06:07;;;;;;;17.30;11.75;;;;;;;;;;5003815;28;20493;-80
2022/05/05 06:08:33;;;;;;;15.43;9.80;;;;;;;;;;5001786;28;20202;-80
2022/05/05 06:10:59;;;;;;;15.70;10.27;;;;;;;;;;5001328;28;20191;-80
2022/05/05 06:13:25;;;;;;;17.93;12.60;;;;;;;;;;5000708;28;20183;-80
2022/05/05 06:15:51;;;;;;;15.35;10.43;;;;;;;;;;4984742;28;20497;-81
2022/05/05 06:18:17;;;;;;;17.80;10.87;;;;;;;;;;4986128;28;20239;-81
2022/05/05 06:20:43;;;;;;;16.95;10.55;;;;;;;;;;4979723;28;20446;-81
2022/05/05 06:23:09;;;;;;;15.07;9.63;;;;;;;;;;4985151;28;20196;-81
2022/05/05 06:25:35;;;;;;;17.58;11.90;;;;;;;;;;4964489;28;20215;-80
2022/05/05 06:28:03;;;;;;;15.40;11.33;;;;;;;;;;4982898;28;20222;-81
2022/05/05 06:30:29;;;;;;;18.25;11.60;;;;;;;;;;4984060;28;20489;-80
2022/05/05 06:32:55;;;;;;;20.42;10.80;;;;;;;;;;4985053;28;20202;-80
2022/05/05 06:35:21;;;;;;;14.67;10.27;;;;;;;;;;4983494;28;20192;-81
2022/05/05 06:37:50;;;;;;;15.55;10.90;;;;;;;;;;4984884;28;20479;-80
2022/05/05 06:40:17;;;;;;;13.50;10.05;;;;;;;;;;4983298;28;20211;-80
2022/05/05 06:42:42;;;;;;;18.23;11.55;;;;;;;;;;4974497;28;20187;-80
2022/05/05 06:45:09;;;;;;;18.50;12.50;;;;;;;;;;4983379;28;20188;-80
2022/05/05 06:47:35;;;;;;;21.77;12.80;;;;;;;;;;4962350;28;20561;-85
2022/05/05 06:50:01;;;;;;;17.40;11.90;;;;;;;;;;4980522;28;20286;-85
2022/05/05 06:52:27;;;;;;;17.83;11.43;;;;;;;;;;4964913;28;20972;-87
2022/05/05 06:54:53;;;;;;;20.00;11.88;;;;;;;;;;4977547;28;20215;-87
2022/05/05 06:57:19;;;;;;;17.90;12.40;;;;;;;;;;4983393;28;20190;-86
2022/05/05 06:59:45;;;;;;;14.67;11.13;;;;;;;;;;4983999;28;20439;-86
2022/05/05 07:02:12;;;;;;;16.75;11.35;;;;;;;;;;4983715;28;20458;-85
2022/05/05 07:07:23;;;;;;;14.18;11.38;;;;;;;;;;4986385;28;20211;-86
2022/05/05 07:12:34;;;;;;;16.23;12.20;;;;;;;;;;4983894;28;20434;-85
2022/05/05 07:15:00;;;;;;;16.02;12.60;;;;;;;;;;4982441;28;20216;-86
2022/05/05 07:17:27;;;;;;;18.88;12.60;;;;;;;;;;4985888;28;20246;-87
2022/05/05 07:19:53;;;;;;;17.50;12.68;;;;;;;;;;4985252;28;20305;-84
2022/05/05 07:22:19;;;;;;;14.85;11.27;;;;;;;;;;4996740;28;20237;-86
2022/05/05 07:24:46;;;;;;;15.93;10.98;;;;;;;;;;5000610;28;20195;-85
2022/05/05 07:27:12;;;;;;;15.75;11.88;;;;;;;;;;5003000;28;20210;-84
2022/05/05 07:29:38;;;;;;;19.93;13.57;;;;;;;;;;4999779;28;20191;-87
2022/05/05 07:32:05;;;;;;;16.02;11.38;;;;;;;;;;4998697;28;20486;-86
2022/05/05 07:34:31;;;;;;;15.95;11.63;;;;;;;;;;4984872;28;20187;-85
2022/05/05 07:36:57;;;;;;;17.17;11.70;;;;;;;;;;4999981;28;20682;-85
2022/05/05 07:39:23;;;;;;;12.50;10.43;;;;;;;;;;5001886;28;20203;-85
2022/05/05 07:41:50;;;;;;;13.32;10.50;;;;;;;;;;4985612;28;20179;-86
2022/05/05 07:44:16;;;;;;;15.77;11.60;;;;;;;;;;4984639;28;20199;-87
2022/05/05 07:46:42;;;;;;;14.93;12.00;;;;;;;;;;4999120;28;20203;-85
2022/05/05 07:49:08;;;;;;;17.08;11.00;;;;;;;;;;4993206;28;20709;-86
2022/05/05 07:51:35;;;;;;;15.52;11.38;;;;;;;;;;4999384;28;20185;-86
2022/05/05 07:56:46;;;;;;;14.60;12.43;;;;;;;;;;5001625;28;20238;-84
2022/05/05 07:59:12;;;;;;;15.57;9.73;;;;;;;;;;5000219;28;20698;-85
2022/05/05 08:01:38;;;;;;;15.10;11.48;;;;;;;;;;4999763;28;20436;-90
2022/05/05 08:04:05;;;;;;;14.95;11.25;;;;;;;;;;4984494;28;20176;-85
2022/05/05 08:06:31;;;;;;;14.38;10.15;;;;;;;;;;5002517;28;20636;-85
2022/05/05 08:08:58;;;;;;;13.60;9.80;;;;;;;;;;4986270;28;20184;-83
2022/05/05 08:11:24;;;;;;;16.85;12.02;;;;;;;;;;4999770;28;20184;-84
2022/05/05 08:13:50;;;;;;;19.65;13.63;;;;;;;;;;4982050;28;20220;-83
2022/05/05 08:16:19;;;;;;;11.30;9.15;;;;;;;;;;5001008;28;20247;-84
2022/05/05 08:18:45;;;;;;;14.18;10.27;;;;;;;;;;4983203;28;20274;-83
2022/05/05 08:21:11;;;;;;;15.23;9.60;;;;;;;;;;4971188;28;20190;-84
2022/05/05 08:23:38;;;;;;;12.05;9.10;;;;;;;;;;4997866;28;20492;-86
2022/05/05 08:28:49;;;;;;;13.13;9.80;;;;;;;;;;4999714;28;20289;-83
2022/05/05 08:31:15;;;;;;;14.35;9.40;;;;;;;;;;4984655;28;20178;-84
2022/05/05 08:33:42;;;;;;;14.10;10.20;;;;;;;;;;4982850;28;20212;-85
2022/05/05 08:36:08;;;;;;;11.90;10.23;;;;;;;;;;5005204;28;20173;-84
2022/05/05 08:38:34;;;;;;;14.88;10.80;;;;;;;;;;4988953;28;20192;-85
2022/05/05 08:41:01;;;;;;;11.65;8.90;;;;;;;;;;5003088;28;20257;-84
2022/05/05 08:43:28;;;;;;;10.27;8.20;;;;;;;;;;5002945;28;20198;-83
2022/05/05 08:45:55;;;;;;;16.30;9.70;;;;;;;;;;4986380;28;20219;-86
2022/05/05 08:48:21;;;;;;;9.68;8.50;;;;;;;;;;4988977;28;20206;-84
2022/05/05 08:50:52;;;;;;;9.65;8.05;;;;;;;;;;4991547;28;20207;-85
2022/05/05 08:53:19;;;;;;;11.38;7.68;;;;;;;;;;4990739;28;20188;-85
2022/05/05 08:55:46;;;;;;;11.05;8.48;;;;;;;;;;5000279;28;20221;-86
2022/05/05 08:58:12;;;;;;;8.70;7.55;;;;;;;;;;4986127;28;20202;-84
2022/05/05 09:00:38;;;;;;;10.00;7.35;;;;;;;;;;5003855;28;20314;-85
2022/05/05 09:03:08;;;;;;;8.55;6.63;;;;;;;;;;4989267;28;20186;-83
2022/05/05 09:05:43;;;;;;;6.90;6.20;;;;;;;;;;5003777;28;20187;-84
2022/05/05 09:08:13;;;;;;;7.90;6.70;;;;;;;;;;4987858;28;20289;-85
2022/05/05 09:10:42;;;;;;;8.75;6.50;;;;;;;;;;4988342;28;20218;-85
2022/05/05 09:13:08;;;;;;;10.10;6.95;;;;;;;;;;4986882;28;20252;-88
2022/05/05 09:15:35;;;;;;;7.32;6.15;;;;;;;;;;4986893;28;20172;-86
2022/05/05 09:18:14;;;;;;;5.63;5.03;;;;;;;;;;4989126;28;20180;-85
2022/05/05 09:20:41;;;;;;;5.95;5.30;;;;;;;;;;5002678;28;20539;-84
2022/05/05 09:23:07;;;;;;;5.85;4.43;;;;;;;;;;5002491;28;20275;-86
2022/05/05 09:25:46;;;;;;;5.20;4.65;;;;;;;;;;4985537;28;20215;-84
2022/05/05 09:28:16;;;;;;;5.63;5.07;;;;;;;;;;5002047;28;20288;-86
2022/05/05 09:30:52;;;;;;;6.07;4.82;;;;;;;;;;4986102;28;20278;-86
2022/05/05 09:33:36;;;;;;;6.38;3.70;;;;;;;;;;5003515;28;20180;-83
2022/05/05 09:36:06;;;;;;;5.55;4.55;;;;;;;;;;4989996;28;20558;-79
2022/05/05 09:38:47;;;;;;;4.88;4.47;;;;;;;;;;5002172;28;20175;-84
2022/05/05 09:41:13;;;;;;;7.65;4.65;;;;;;;;;;5002502;28;20255;-87
2022/05/05 09:43:39;;;;;;;6.20;5.60;;;;;;;;;;4986866;28;20183;-85
2022/05/05 09:46:26;;;;;;;5.80;4.60;;;;;;;;;;4986135;28;20279;-85
2022/05/05 09:49:04;;;;;;;4.95;4.30;;;;;;;;;;4987763;28;20458;-86
2022/05/05 09:51:30;;;;;;;4.00;3.70;;;;;;;;;;4987164;28;20175;-84
2022/05/05 09:59:30;;;;;;;6.53;4.63;;;;;;;;;;5002093;28;20244;-83
2022/05/05 10:02:04;;;;;;;7.47;5.47;;;;;;;;;;5002033;28;20187;-86
2022/05/05 10:04:33;;;;;;;5.45;4.97;;;;;;;;;;4986388;28;20182;-82
2022/05/05 10:07:02;;;;;;;5.00;4.50;;;;;;;;;;4986064;28;20203;-83
2022/05/05 10:09:31;;;;;;;6.22;4.38;;;;;;;;;;5004164;28;20178;-90
2022/05/05 10:11:58;;;;;;;6.70;4.60;;;;;;;;;;4987591;28;20228;-87
2022/05/05 10:14:25;;;;;;;4.00;3.70;;;;;;;;;;5002877;28;20191;-87
2022/05/05 10:16:51;;;;;;;4.40;3.33;;;;;;;;;;4984655;28;20246;-83
2022/05/05 10:19:18;;;;;;;4.30;3.30;;;;;;;;;;5001820;28;20636;-85
2022/05/05 10:21:47;;;;;;;4.90;2.85;;;;;;;;;;4985693;28;20207;-86
2022/05/05 10:24:34;;;;;;;3.58;3.28;;;;;;;;;;4987834;28;20179;-86
2022/05/05 10:27:01;;;;;;;3.60;3.08;;;;;;;;;;4998025;28;20212;-85
2022/05/05 10:29:36;;;;;;;3.20;2.90;;;;;;;;;;4995168;28;20198;-85
2022/05/05 10:32:06;;;;;;;4.35;3.03;;;;;;;;;;5000586;28;20184;-85
2022/05/05 10:34:32;;;;;;;2.65;2.20;;;;;;;;;;5000443;28;20242;-87
2022/05/05 10:37:00;;;;;;;4.70;4.30;;;;;;;;;;4983564;28;20180;-85
2022/05/05 10:39:41;;;;;;;3.17;2.88;;;;;;;;;;4986049;28;20186;-85
2022/05/05 10:42:14;;;;;;;4.63;3.13;;;;;;;;;;5000448;28;20751;-87
2022/05/05 10:45:00;;;;;;;3.65;3.35;;;;;;;;;;5000890;28;20194;-87
2022/05/05 10:47:26;;;;;;;2.80;2.55;;;;;;;;;;5001114;28;20730;-85
2022/05/05 10:49:53;;;;;;;3.08;2.53;;;;;;;;;;5000605;28;20683;-86
2022/05/05 10:52:22;;;;;;;3.78;2.97;;;;;;;;;;5000690;28;20176;-86
2022/05/05 10:54:50;;;;;;;3.25;2.75;;;;;;;;;;4968298;28;20741;-87
2022/05/05 10:57:25;;;;;;;2.92;2.72;;;;;;;;;;4986773;28;20222;-87
2022/05/05 11:00:10;;;;;;;3.03;2.83;;;;;;;;;;4997569;28;20572;-83
2022/05/05 11:02:57;;;;;;;2.25;2.10;;;;;;;;;;4982514;28;20195;-86
2022/05/05 11:05:35;;;;;;;4.05;2.60;;;;;;;;;;4988291;28;20199;-85
2022/05/05 11:08:08;;;;;;;2.20;2.00;;;;;;;;;;4995554;28;20199;-90
2022/05/05 11:10:39;;;;;;;2.55;1.77;;;;;;;;;;5000287;28;20187;-90
2022/05/05 11:13:05;;;;;;;4.57;2.40;;;;;;;;;;4985160;28;20219;-88
2022/05/05 11:21:32;;;;;;;2.10;2.00;;;;;;;;;;5004353;28;20569;-86
2022/05/05 11:23:59;;;;;;;4.63;2.45;;;;;;;;;;4986710;28;20183;-90
2022/05/05 11:26:25;;;;;;;1.70;1.60;;;;;;;;;;5000634;28;20196;-86
2022/05/05 11:28:51;;;;;;;2.63;1.90;;;;;;;;;;5000713;28;20210;-88
2022/05/05 11:31:19;;;;;;;2.10;2.00;;;;;;;;;;5002609;28;20438;-88
2022/05/05 11:33:48;;;;;;;2.30;2.10;;;;;;;;;;5000989;28;20189;-88
2022/05/05 11:36:14;;;;;;;2.42;2.22;;;;;;;;;;5000444;28;20250;-90
2022/05/05 11:38:42;;;;;;;1.85;1.75;;;;;;;;;;5000478;28;20217;-89
2022/05/05 11:41:08;;;;;;;2.00;1.90;;;;;;;;;;5001213;28;20253;-90
2022/05/05 11:46:19;;;;;;;2.20;2.00;;;;;;;;;;5000724;28;20217;-86
2022/05/05 11:48:53;;;;;;;2.47;2.20;;;;;;;;;;4997313;28;20207;-87
2022/05/05 11:51:27;;;;;;;2.40;1.63;;;;;;;;;;4983337;28;20172;-89
2022/05/05 11:54:02;;;;;;;1.80;1.70;;;;;;;;;;5001783;28;20191;-89
2022/05/05 11:56:29;;;;;;;1.75;1.30;;;;;;;;;;5001388;28;20192;-89
2022/05/05 12:01:41;;;;;;;2.80;1.50;;;;;;;;;;5001193;28;20200;-87
2022/05/05 12:04:08;;;;;;;2.95;1.50;;;;;;;;;;4983874;28;20244;-89
2022/05/05 12:06:34;;;;;;;2.17;1.60;;;;;;;;;;4984523;28;20199;-87
2022/05/05 12:09:00;;;;;;;3.58;1.95;;;;;;;;;;5002738;28;20214;-89
2022/05/05 12:11:30;;;;;;;2.15;2.03;;;;;;;;;;5004301;28;20192;-90
2022/05/05 12:14:00;;;;;;;2.42;1.55;;;;;;;;;;5005180;28;20183;-89
2022/05/05 12:16:30;;;;;;;3.35;1.52;;;;;;;;;;4988914;28;20226;-85
2022/05/05 12:18:56;;;;;;;2.38;1.50;;;;;;;;;;4986450;28;20819;-88
2022/05/05 12:21:22;;;;;;;1.90;1.80;;;;;;;;;;4988970;28;20177;-87
2022/05/05 12:24:02;;;;;;;1.77;1.40;;;;;;;;;;4988680;28;20923;-87
2022/05/05 12:26:33;;;;;;;2.17;1.30;;;;;;;;;;5001852;28;20190;-87
2022/05/05 12:29:02;;;;;;;1.65;1.50;;;;;;;;;;4986598;28;20218;-88
2022/05/05 12:31:29;;;;;;;1.63;1.52;;;;;;;;;;4988940;28;20254;-87
2022/05/05 12:33:56;;;;;;;2.00;1.50;;;;;;;;;;4988954;28;20191;-87
2022/05/05 12:36:28;;;;;;;1.98;1.40;;;;;;;;;;4989044;28;20198;-86
2022/05/05 12:39:13;;;;;;;3.58;1.73;;;;;;;;;;4989392;28;20200;-88
2022/05/05 12:41:56;;;;;;;1.50;1.38;;;;;;;;;;4988976;28;20188;-88
2022/05/05 12:44:22;;;;;;;1.63;1.30;;;;;;;;;;5003461;28;20193;-84
2022/05/05 12:47:00;;;;;;;3.73;1.67;;;;;;;;;;5002592;28;20644;-86
2022/05/05 12:49:35;;;;;;;1.85;1.75;;;;;;;;;;4988898;28;20923;-88
2022/05/05 12:52:02;;;;;;;1.70;1.60;;;;;;;;;;5002724;28;20243;-88
2022/05/05 12:59:58;;;;;;;1.73;1.63;;;;;;;;;;5001041;28;20681;-84
2022/05/05 13:02:24;;;;;;;1.90;1.80;;;;;;;;;;5000136;28;20188;-86
2022/05/05 13:04:51;;;;;;;1.90;1.80;;;;;;;;;;5004391;28;20479;-85
2022/05/05 13:07:17;;;;;;;1.98;1.75;;;;;;;;;;4985362;28;20485;-90
2022/05/05 13:09:43;;;;;;;1.88;1.75;;;;;;;;;;4986178;28;20245;-86
2022/05/05 13:12:09;;;;;;;2.30;1.40;;;;;;;;;;4988924;28;20218;-87
2022/05/05 13:14:35;;;;;;;1.73;1.53;;;;;;;;;;4984977;28;20450;-87
2022/05/05 13:17:02;;;;;;;2.13;1.47;;;;;;;;;;5003648;28;20484;-91
2022/05/05 13:19:29;;;;;;;3.63;1.50;;;;;;;;;;4981284;28;20446;-86
2022/05/05 13:21:56;;;;;;;1.30;1.20;;;;;;;;;;4987361;28;20445;-84
2022/05/05 13:24:22;;;;;;;2.07;1.83;;;;;;;;;;4988100;28;20408;-87
2022/05/05 13:26:48;;;;;;;2.00;1.60;;;;;;;;;;4986963;28;20404;-91
2022/05/05 13:29:14;;;;;;;1.93;1.83;;;;;;;;;;4985034;28;20505;-88
2022/05/05 13:31:41;;;;;;;3.90;1.77;;;;;;;;;;4985760;28;20439;-88
2022/05/05 13:34:08;;;;;;;2.22;1.60;;;;;;;;;;4988658;28;20185;-88
2022/05/05 13:36:35;;;;;;;2.40;1.70;;;;;;;;;;4987408;28;20316;-86
2022/05/05 13:39:01;;;;;;;2.57;1.87;;;;;;;;;;5004568;28;20423;-89
2022/05/05 13:41:27;;;;;;;1.97;1.77;;;;;;;;;;5002405;28;20409;-86
2022/05/05 13:43:53;;;;;;;1.40;1.30;;;;;;;;;;4987027;28;20424;-87
2022/05/05 13:46:19;;;;;;;1.40;1.30;;;;;;;;;;4984924;28;20412;-85
2022/05/05 13:48:45;;;;;;;2.60;1.70;;;;;;;;;;4985380;28;20444;-89
2022/05/05 13:51:12;;;;;;;5.87;1.50;;;;;;;;;;5005832;28;20953;-84
2022/05/05 13:53:38;;;;;;;1.83;1.57;;;;;;;;;;5002083;28;20476;-87
2022/05/05 13:56:04;;;;;;;1.57;1.43;;;;;;;;;;5002389;28;20438;-92
2022/05/05 13:58:30;;;;;;;1.63;1.43;;;;;;;;;;5002552;28;20465;-87
2022/05/05 14:00:56;;;;;;;1.67;1.50;;;;;;;;;;5002505;28;20422;-88
2022/05/05 14:03:22;;;;;;;1.40;1.30;;;;;;;;;;5004881;28;20409;-88
2022/05/05 14:05:48;;;;;;;1.80;1.40;;;;;;;;;;5002627;28;20422;-84
2022/05/05 14:13:44;;;;;;;1.90;1.43;;;;;;;;;;5000551;28;20491;-82
2022/05/05 14:16:11;;;;;;;2.10;1.50;;;;;;;;;;5000553;28;20866;-87
2022/05/05 14:18:37;;;;;;;1.93;1.43;;;;;;;;;;4985199;28;20874;-84
2022/05/05 14:21:04;;;;;;;2.33;1.50;;;;;;;;;;5003325;28;20393;-85
2022/05/05 14:23:30;;;;;;;2.07;1.37;;;;;;;;;;4987006;28;20442;-84
2022/05/05 14:25:56;;;;;;;1.90;1.50;;;;;;;;;;5001802;28;20529;-86
2022/05/05 14:28:22;;;;;;;1.20;1.10;;;;;;;;;;5001122;28;20520;-86
2022/05/05 14:30:48;;;;;;;2.10;1.27;;;;;;;;;;4984724;28;20417;-84
2022/05/05 14:33:15;;;;;;;2.30;1.57;;;;;;;;;;5004172;28;20476;-84
2022/05/05 14:35:42;;;;;;;1.57;1.47;;;;;;;;;;4986069;28;20446;-84
2022/05/05 14:38:09;;;;;;;2.05;1.48;;;;;;;;;;5001565;28;20452;-84
2022/05/05 14:40:35;;;;;;;2.37;1.20;;;;;;;;;;4986420;28;20720;-86
2022/05/05 14:43:01;;;;;;;2.50;1.60;;;;;;;;;;5000949;28;20478;-85
2022/05/05 14:45:28;;;;;;;1.40;1.30;;;;;;;;;;5003227;28;20443;-86
2022/05/05 14:47:54;;;;;;;1.40;1.30;;;;;;;;;;5002331;28;20462;-86
2022/05/05 14:50:20;;;;;;;2.43;1.10;;;;;;;;;;4986556;28;20416;-83
2022/05/05 14:52:46;;;;;;;1.23;1.13;;;;;;;;;;4986207;28;20437;-85
2022/05/05 14:55:12;;;;;;;1.35;1.25;;;;;;;;;;5001541;28;20437;-89
2022/05/05 14:57:38;;;;;;;1.67;1.58;;;;;;;;;;4984866;28;20293;-84
2022/05/05 15:00:07;;;;;;;1.67;1.50;;;;;;;;;;5001798;28;20191;-84
2022/05/05 15:02:34;;;;;;;2.35;1.70;;;;;;;;;;5003056;28;20456;-84
2022/05/05 15:05:00;;;;;;;5.65;1.55;;;;;;;;;;4988138;28;20190;-83
2022/05/05 15:07:26;;;;;;;1.40;1.27;;;;;;;;;;5001415;28;20208;-89
2022/05/05 15:09:52;;;;;;;1.92;1.38;;;;;;;;;;4984307;28;20444;-85
2022/05/05 15:12:18;;;;;;;1.30;1.20;;;;;;;;;;4987500;28;20411;-81
2022/05/05 15:14:46;;;;;;;2.10;1.38;;;;;;;;;;5002534;28;20450;-86
2022/05/05 15:17:12;;;;;;;1.30;1.20;;;;;;;;;;4985235;28;20315;-91
2022/05/05 15:19:38;;;;;;;1.80;1.20;;;;;;;;;;4985837;28;20512;-83
2022/05/05 15:22:05;;;;;;;1.98;1.20;;;;;;;;;;5001298;28;20455;-84
2022/05/05 15:24:31;;;;;;;1.70;1.42;;;;;;;;;;5003531;28;20208;-84
2022/05/05 15:26:57;;;;;;;2.10;1.50;;;;;;;;;;5001339;28;20174;-81
2022/05/05 15:29:23;;;;;;;3.23;1.70;;;;;;;;;;5000209;28;20223;-86